createdAt,value
2022-12-27T00:01:46.211Z,6.92
2022-12-27T00:04:18.980Z,6.90
2022-12-27T00:06:51.676Z,6.80
2022-12-27T00:09:24.639Z,6.65
2022-12-27T00:11:59.952Z,6.48
2022-12-27T00:14:33.037Z,6.29
2022-12-27T00:17:06.032Z,6.14
2022-12-27T00:19:38.994Z,6.01
2022-12-27T00:22:12.933Z,5.91
2022-12-27T00:24:45.796Z,5.81
2022-12-27T00:27:18.477Z,5.73
2022-12-27T00:29:52.330Z,5.66
2022-12-27T00:32:27.387Z,5.61
2022-12-27T00:35:00.353Z,5.53
2022-12-27T00:37:33.066Z,5.45
2022-12-27T00:40:12.376Z,5.41
2022-12-27T00:42:45.191Z,5.38
2022-12-27T00:45:20.343Z,5.32
2022-12-27T00:47:56.096Z,5.26
2022-12-27T00:50:29.261Z,5.24
2022-12-27T00:53:04.641Z,5.22
2022-12-27T00:55:37.748Z,5.16
2022-12-27T00:58:11.490Z,5.15
2022-12-27T01:00:44.558Z,5.14
2022-12-27T01:03:18.013Z,5.10
2022-12-27T01:05:51.590Z,5.06
2022-12-27T01:08:24.586Z,5.02
2022-12-27T01:10:57.449Z,5.00
2022-12-27T01:13:30.857Z,4.99
2022-12-27T01:16:12.755Z,4.96
2022-12-27T01:18:45.616Z,4.95
2022-12-27T01:21:20.713Z,4.94
2022-12-27T01:23:53.752Z,4.92
2022-12-27T01:26:26.874Z,4.86
2022-12-27T01:28:59.560Z,4.83
2022-12-27T01:31:32.485Z,4.81
2022-12-27T01:34:05.259Z,4.82
2022-12-27T01:36:37.935Z,4.85
2022-12-27T01:39:13.965Z,4.84
2022-12-27T01:42:05.441Z,4.82
2022-12-27T01:44:57.047Z,4.80
2022-12-27T01:47:45.604Z,4.77
2022-12-27T01:50:24.884Z,4.73
2022-12-27T01:53:03.560Z,4.67
2022-12-27T01:55:41.148Z,4.62
2022-12-27T01:58:19.133Z,4.59
2022-12-27T02:00:54.989Z,4.56
2022-12-27T02:03:31.535Z,4.55
2022-12-27T02:06:07.169Z,4.51
2022-12-27T02:08:50.293Z,4.49
2022-12-27T02:11:41.692Z,4.44
2022-12-27T02:14:16.781Z,4.37
2022-12-27T02:16:49.454Z,4.32
2022-12-27T02:19:33.079Z,4.29
2022-12-27T02:26:39.325Z,4.07
2022-12-27T02:29:31.540Z,4.00
2022-12-27T02:32:08.761Z,3.94
2022-12-27T02:34:57.311Z,3.92
2022-12-27T02:37:33.197Z,3.87
2022-12-27T02:40:28.504Z,3.89
2022-12-27T02:43:23.042Z,3.87
2022-12-27T02:46:28.213Z,3.85
2022-12-27T02:49:22.985Z,3.83
2022-12-27T02:52:29.191Z,3.83
2022-12-27T02:55:17.066Z,3.82
2022-12-27T02:58:15.407Z,3.81
2022-12-27T03:01:14.101Z,3.78
2022-12-27T03:04:05.026Z,3.77
2022-12-27T03:06:59.731Z,3.74
2022-12-27T03:10:21.485Z,3.69
2022-12-27T03:13:21.953Z,3.62
2022-12-27T03:16:09.083Z,3.60
2022-12-27T03:18:54.754Z,3.57
2022-12-27T03:22:00.725Z,3.58
2022-12-27T03:25:06.070Z,3.59
2022-12-27T03:27:44.467Z,3.59
2022-12-27T03:30:34.826Z,3.59
2022-12-27T03:33:14.663Z,3.58
2022-12-27T03:54:40.301Z,3.68
2022-12-27T03:57:14.609Z,3.59
2022-12-27T03:59:44.146Z,3.59
2022-12-27T04:02:14.304Z,3.59
2022-12-27T04:04:44.010Z,3.60
2022-12-27T04:10:20.439Z,3.61
2022-12-27T04:13:08.055Z,3.58
2022-12-27T04:15:55.570Z,3.54
2022-12-27T04:18:42.838Z,3.52
2022-12-27T04:21:30.155Z,3.52
2022-12-27T04:24:19.792Z,3.48
2022-12-27T04:27:07.356Z,3.45
2022-12-27T04:29:57.816Z,3.43
2022-12-27T04:32:45.662Z,3.41
2022-12-27T04:35:15.011Z,3.42
2022-12-27T04:37:44.407Z,3.42
2022-12-27T04:40:31.877Z,3.40
2022-12-27T04:43:19.368Z,3.40
2022-12-27T04:46:06.701Z,3.37
2022-12-27T04:49:08.680Z,3.38
2022-12-27T04:51:56.215Z,3.34
2022-12-27T04:54:44.331Z,3.40
2022-12-27T04:57:13.668Z,3.41
2022-12-27T05:00:01.088Z,3.43
2022-12-27T05:02:30.766Z,3.42
2022-12-27T05:05:00.768Z,3.40
2022-12-27T05:07:48.683Z,3.39
2022-12-27T05:10:36.639Z,3.36
2022-12-27T05:13:24.231Z,3.31
2022-12-27T05:15:53.569Z,3.29
2022-12-27T05:18:26.688Z,3.27
2022-12-27T05:21:03.518Z,3.27
2022-12-27T05:23:52.910Z,3.28
2022-12-27T05:26:24.339Z,3.30
2022-12-27T05:28:55.016Z,3.32
2022-12-27T05:31:26.487Z,3.33
2022-12-27T05:33:57.160Z,3.36
2022-12-27T05:36:27.076Z,3.37
2022-12-27T05:38:57.569Z,3.39
2022-12-27T05:41:31.292Z,3.39
2022-12-27T05:44:07.179Z,3.41
2022-12-27T05:46:37.135Z,3.41
2022-12-27T05:49:06.737Z,3.43
2022-12-27T05:51:35.950Z,3.45
2022-12-27T05:54:05.682Z,3.47
2022-12-27T05:56:36.710Z,3.51
2022-12-27T05:59:07.371Z,3.54
2022-12-27T06:01:39.027Z,3.56
2022-12-27T06:04:10.198Z,3.60
2022-12-27T06:06:41.723Z,3.62
2022-12-27T06:09:11.058Z,3.62
2022-12-27T06:15:33.799Z,3.57
2022-12-27T06:18:27.152Z,3.56
2022-12-27T06:21:02.771Z,3.55
2022-12-27T06:23:32.721Z,3.57
2022-12-27T06:26:06.741Z,3.58
2022-12-27T06:28:36.344Z,3.60
2022-12-27T06:31:06.689Z,3.63
2022-12-27T06:33:36.001Z,3.64
2022-12-27T06:36:49.174Z,3.65
2022-12-27T06:39:19.442Z,3.65
2022-12-27T06:41:53.405Z,3.67
2022-12-27T06:44:22.772Z,3.68
2022-12-27T06:46:52.139Z,3.70
2022-12-27T06:49:22.827Z,3.73
2022-12-27T06:51:59.059Z,3.78
2022-12-27T06:54:33.847Z,3.82
2022-12-27T06:57:03.395Z,3.86
2022-12-27T06:59:32.676Z,3.94
2022-12-27T07:02:02.143Z,3.98
2022-12-27T07:04:34.923Z,3.99
2022-12-27T07:07:04.767Z,3.98
2022-12-27T07:09:34.013Z,4.00
2022-12-27T07:12:17.077Z,4.03
2022-12-27T07:15:00.710Z,4.04
2022-12-27T07:17:30.133Z,4.08
2022-12-27T07:19:59.435Z,4.08
2022-12-27T07:22:28.962Z,4.08
2022-12-27T07:24:58.210Z,4.10
2022-12-27T07:27:27.481Z,4.14
2022-12-27T07:29:56.909Z,4.16
2022-12-27T07:32:26.158Z,4.17
2022-12-27T07:34:55.628Z,4.20
2022-12-27T07:37:24.904Z,4.19
2022-12-27T07:39:54.171Z,4.23
2022-12-27T07:42:23.636Z,4.28
2022-12-27T07:44:53.047Z,4.31
2022-12-27T07:47:22.277Z,4.34
2022-12-27T07:49:51.741Z,4.37
2022-12-27T07:52:21.070Z,4.42
2022-12-27T07:54:50.352Z,4.44
2022-12-27T07:57:19.737Z,4.47
2022-12-27T07:59:49.202Z,4.50
2022-12-27T08:02:18.574Z,4.47
2022-12-27T08:04:48.487Z,4.45
2022-12-27T08:08:23.587Z,4.49
2022-12-27T08:10:53.102Z,4.39
2022-12-27T08:13:22.662Z,4.40
2022-12-27T08:16:00.664Z,4.37
2022-12-27T08:18:30.080Z,4.35
2022-12-27T08:20:59.381Z,4.32
2022-12-27T08:23:28.620Z,4.28
2022-12-27T08:25:57.941Z,4.27
2022-12-27T08:28:31.040Z,4.27
2022-12-27T08:31:00.919Z,4.22
2022-12-27T08:33:30.254Z,4.18
2022-12-27T08:36:15.723Z,4.18
2022-12-27T08:38:55.911Z,4.16
2022-12-27T08:41:25.453Z,4.18
2022-12-27T08:43:54.749Z,4.20
2022-12-27T08:46:28.589Z,4.24
2022-12-27T08:49:00.915Z,4.25
2022-12-27T08:52:00.414Z,4.22
2022-12-27T08:54:44.349Z,4.19
2022-12-27T08:57:13.627Z,4.20
2022-12-27T08:59:42.931Z,4.22
2022-12-27T09:02:13.930Z,4.24
2022-12-27T09:04:44.462Z,4.26
2022-12-27T09:07:13.939Z,4.30
2022-12-27T09:09:44.396Z,4.34
2022-12-27T09:12:13.682Z,4.38
2022-12-27T09:14:42.921Z,4.38
2022-12-27T09:17:13.347Z,4.40
2022-12-27T09:19:42.648Z,4.39
2022-12-27T09:22:12.065Z,4.38
2022-12-27T09:24:41.391Z,4.37
2022-12-27T09:27:10.693Z,4.37
2022-12-27T09:29:43.166Z,4.33
2022-12-27T09:32:17.435Z,4.29
2022-12-27T09:34:49.050Z,4.28
2022-12-27T09:37:18.317Z,4.33
2022-12-27T09:39:47.791Z,4.34
2022-12-27T09:42:50.137Z,4.34
2022-12-27T09:45:28.402Z,4.35
2022-12-27T09:48:02.178Z,4.35
2022-12-27T09:50:35.916Z,4.35
2022-12-27T09:53:16.781Z,4.34
2022-12-27T09:55:50.192Z,4.34
2022-12-27T09:58:34.179Z,4.37
2022-12-27T10:01:14.923Z,4.40
2022-12-27T10:03:44.839Z,4.43
2022-12-27T10:06:26.906Z,4.46
2022-12-27T10:09:02.637Z,4.44
2022-12-27T10:11:41.166Z,4.45
2022-12-27T10:14:25.756Z,4.46
2022-12-27T10:17:02.239Z,4.43
2022-12-27T10:19:42.104Z,4.44
2022-12-27T10:22:26.646Z,4.42
2022-12-27T10:25:03.948Z,4.42
2022-12-27T10:27:33.323Z,4.42
2022-12-27T10:30:13.819Z,4.42
2022-12-27T10:32:43.312Z,4.40
2022-12-27T10:35:18.950Z,4.40
2022-12-27T10:37:49.649Z,4.40
2022-12-27T10:40:25.541Z,4.40
2022-12-27T10:43:04.811Z,4.42
2022-12-27T10:45:38.531Z,4.40
2022-12-27T10:48:22.996Z,4.38
2022-12-27T10:50:56.631Z,4.37
2022-12-27T10:53:36.536Z,4.36
2022-12-27T10:56:13.161Z,4.32
2022-12-27T10:58:45.642Z,4.30
2022-12-27T11:01:22.745Z,4.29
2022-12-27T11:04:11.900Z,4.29
2022-12-27T11:06:47.414Z,4.26
2022-12-27T11:09:26.759Z,4.28
2022-12-27T11:12:13.122Z,4.28
2022-12-27T11:14:55.544Z,4.29
2022-12-27T11:17:37.185Z,4.33
2022-12-27T11:20:26.483Z,4.36
2022-12-27T11:22:59.259Z,4.34
2022-12-27T11:25:31.716Z,4.35
2022-12-27T11:28:04.461Z,4.39
2022-12-27T11:30:37.644Z,4.42
2022-12-27T11:33:24.406Z,4.42
2022-12-27T11:35:57.008Z,4.45
2022-12-27T11:38:29.329Z,4.46
2022-12-27T11:41:05.510Z,4.48
2022-12-27T11:44:11.745Z,4.48
2022-12-27T11:46:47.266Z,4.42
2022-12-27T11:49:22.602Z,4.45
2022-12-27T11:52:18.835Z,4.48
2022-12-27T11:55:23.909Z,4.47
2022-12-27T11:58:33.939Z,4.44
2022-12-27T12:01:24.986Z,4.41
2022-12-27T12:04:06.780Z,4.41
2022-12-27T12:06:47.161Z,4.42
2022-12-27T12:09:50.043Z,4.41
2022-12-27T12:12:51.686Z,4.36
2022-12-27T12:15:41.560Z,4.34
2022-12-27T12:18:33.780Z,4.35
2022-12-27T12:21:26.427Z,4.40
2022-12-27T12:24:37.902Z,4.40
2022-12-27T12:27:27.558Z,4.42
2022-12-27T12:30:27.742Z,4.41
2022-12-27T12:33:13.080Z,4.39
2022-12-27T12:36:22.621Z,4.43
2022-12-27T12:38:58.530Z,4.42
2022-12-27T12:41:47.735Z,4.47
2022-12-27T12:44:45.939Z,4.49
2022-12-27T12:47:33.636Z,4.51
2022-12-27T12:50:35.945Z,4.50
2022-12-27T12:53:32.803Z,4.52
2022-12-27T12:56:22.148Z,4.51
2022-12-27T12:58:59.829Z,4.53
2022-12-27T13:01:50.926Z,4.56
2022-12-27T13:04:58.074Z,4.55
2022-12-27T13:07:46.392Z,4.56
2022-12-27T13:10:42.777Z,4.58
2022-12-27T13:13:25.309Z,4.58
2022-12-27T13:16:05.817Z,4.59
2022-12-27T13:18:46.906Z,4.60
2022-12-27T13:21:29.119Z,4.57
2022-12-27T13:24:10.624Z,4.56
2022-12-27T13:26:47.938Z,4.54
2022-12-27T13:29:38.656Z,4.50
2022-12-27T13:32:19.360Z,4.52
2022-12-27T13:35:24.636Z,4.50
2022-12-27T13:38:07.016Z,4.43
2022-12-27T13:40:55.621Z,4.39
2022-12-27T13:43:52.565Z,4.34
2022-12-27T13:46:43.127Z,4.28
2022-12-27T13:49:43.799Z,4.26
2022-12-27T13:52:25.689Z,4.21
2022-12-27T13:55:21.553Z,4.24
2022-12-27T13:58:21.643Z,4.24
2022-12-27T14:01:01.383Z,4.21
2022-12-27T14:04:04.273Z,4.19
2022-12-27T14:06:58.429Z,4.17
2022-12-27T14:09:56.494Z,4.15
2022-12-27T14:12:52.793Z,4.13
2022-12-27T14:15:51.009Z,4.10
2022-12-27T14:18:44.357Z,4.12
2022-12-27T14:21:37.067Z,4.11
2022-12-27T14:24:55.301Z,4.11
2022-12-27T14:28:04.664Z,4.04
2022-12-27T14:31:14.240Z,4.05
2022-12-27T14:34:27.594Z,4.05
2022-12-27T14:37:16.695Z,4.03
2022-12-27T14:40:16.931Z,4.01
2022-12-27T14:43:34.804Z,3.99
2022-12-27T14:46:44.978Z,3.97
2022-12-27T14:53:31.125Z,3.93
2022-12-27T14:56:12.185Z,3.92
2022-12-27T14:59:16.994Z,3.94
2022-12-27T15:01:59.040Z,3.94
2022-12-27T15:04:54.924Z,3.95
2022-12-27T15:07:56.831Z,3.97
2022-12-27T15:10:49.172Z,3.97
2022-12-27T15:13:31.318Z,4.01
2022-12-27T15:16:13.362Z,4.04
2022-12-27T15:18:57.591Z,4.05
2022-12-27T15:22:19.471Z,4.06
2022-12-27T15:24:58.316Z,4.04
2022-12-27T15:27:45.934Z,4.07
2022-12-27T15:30:45.527Z,4.08
2022-12-27T15:34:20.407Z,4.08
2022-12-27T15:36:52.305Z,4.06
2022-12-27T15:39:47.285Z,4.09
2022-12-27T15:42:55.166Z,4.11
2022-12-27T15:45:57.532Z,4.10
2022-12-27T15:48:58.338Z,4.12
2022-12-27T15:51:44.025Z,4.13
2022-12-27T15:54:41.202Z,4.14
2022-12-27T15:57:57.979Z,4.15
2022-12-27T16:01:26.386Z,4.17
2022-12-27T16:04:01.427Z,4.16
2022-12-27T16:07:24.984Z,4.19
2022-12-27T16:09:55.505Z,4.18
2022-12-27T16:12:41.475Z,4.20
2022-12-27T16:15:52.819Z,4.18
2022-12-27T16:19:04.539Z,4.25
2022-12-27T16:22:11.567Z,4.24
2022-12-27T16:24:46.244Z,4.22
2022-12-27T16:27:31.657Z,4.22
2022-12-27T16:30:01.189Z,4.20
2022-12-27T16:32:45.302Z,4.24
2022-12-27T16:35:16.430Z,4.23
2022-12-27T16:37:53.586Z,4.24
2022-12-27T16:40:51.930Z,4.22
2022-12-27T16:44:14.245Z,4.20
2022-12-27T16:47:13.300Z,4.16
2022-12-27T16:50:34.727Z,4.18
2022-12-27T16:53:35.635Z,4.16
2022-12-27T17:00:41.593Z,4.13
2022-12-27T17:03:47.754Z,4.01
2022-12-27T17:06:57.843Z,4.06
2022-12-27T17:09:51.840Z,4.07
2022-12-27T17:12:29.299Z,4.10
2022-12-27T17:15:07.628Z,4.15
2022-12-27T17:17:40.416Z,4.17
2022-12-27T17:20:19.499Z,4.22
2022-12-27T17:22:58.218Z,4.23
2022-12-27T17:25:44.527Z,4.24
2022-12-27T17:28:24.146Z,4.26
2022-12-27T17:31:12.970Z,4.27
2022-12-27T17:34:02.592Z,4.27
2022-12-27T17:36:49.211Z,4.25
2022-12-27T17:39:58.800Z,4.26
2022-12-27T17:42:54.404Z,4.25
2022-12-27T17:45:49.617Z,4.23
2022-12-27T17:48:29.325Z,4.22
2022-12-27T17:51:07.186Z,4.24
2022-12-27T17:54:18.288Z,4.26
2022-12-27T17:57:43.978Z,4.25
2022-12-27T18:00:45.273Z,4.26
2022-12-27T18:03:27.994Z,4.26
2022-12-27T18:06:03.341Z,4.25
2022-12-27T18:09:04.963Z,4.27
2022-12-27T18:11:37.798Z,4.28
2022-12-27T18:14:17.027Z,4.33
2022-12-27T18:16:50.490Z,4.36
2022-12-27T18:19:23.604Z,4.36
2022-12-27T18:22:39.389Z,4.36
2022-12-27T18:25:51.054Z,4.35
2022-12-27T18:28:59.871Z,4.34
2022-12-27T18:31:45.385Z,4.33
2022-12-27T18:34:34.645Z,4.31
2022-12-27T18:37:10.071Z,4.31
2022-12-27T18:39:48.730Z,4.32
2022-12-27T18:45:47.127Z,4.32
2022-12-27T18:48:40.625Z,4.32
2022-12-27T18:51:17.782Z,4.32
2022-12-27T18:53:59.278Z,4.35
2022-12-27T18:56:55.599Z,4.35
2022-12-27T19:03:36.552Z,4.32
2022-12-27T19:07:10.607Z,4.32
2022-12-27T19:10:04.294Z,4.26
2022-12-27T19:13:04.429Z,4.32
2022-12-27T19:15:43.916Z,4.31
2022-12-27T19:23:33.031Z,4.29
2022-12-27T19:27:01.989Z,4.19
2022-12-27T19:29:42.638Z,4.25
2022-12-27T19:32:36.838Z,4.23
2022-12-27T19:35:16.741Z,4.29
2022-12-27T19:42:52.168Z,4.29
2022-12-27T19:57:30.557Z,4.46
2022-12-27T20:11:07.624Z,4.47
2022-12-27T20:13:37.531Z,4.38
2022-12-27T20:16:12.408Z,4.39
2022-12-27T20:18:42.937Z,4.40
2022-12-27T20:21:14.770Z,4.40
2022-12-27T20:23:44.620Z,4.42
2022-12-27T20:26:19.721Z,4.44
2022-12-27T20:28:52.888Z,4.45
2022-12-27T20:31:51.585Z,4.45
2022-12-27T20:34:21.175Z,4.38
2022-12-27T20:37:11.783Z,4.43
2022-12-27T20:39:41.245Z,4.39
2022-12-27T20:42:10.656Z,4.36
2022-12-27T20:44:40.204Z,4.32
2022-12-27T20:47:09.811Z,4.34
2022-12-27T20:49:39.476Z,4.33
2022-12-27T20:52:08.795Z,4.33
2022-12-27T20:54:44.168Z,4.33
2022-12-27T20:57:13.570Z,4.34
2022-12-27T20:59:49.373Z,4.33
2022-12-27T21:02:21.675Z,4.31
2022-12-27T21:04:51.335Z,4.30
2022-12-27T21:07:20.905Z,4.30
2022-12-27T21:09:50.502Z,4.27
2022-12-27T21:12:20.068Z,4.32
2022-12-27T21:15:31.336Z,4.32
2022-12-27T21:18:01.079Z,4.26
2022-12-27T21:20:39.100Z,4.28
2022-12-27T21:23:09.116Z,4.28
2022-12-27T21:25:40.535Z,4.27
2022-12-27T21:28:10.078Z,4.26
2022-12-27T21:31:15.425Z,4.28
2022-12-27T21:37:27.524Z,4.20
2022-12-27T21:39:58.141Z,4.24
2022-12-27T21:42:36.151Z,4.22
2022-12-27T21:45:07.715Z,4.24
2022-12-27T21:47:37.016Z,4.24
2022-12-27T21:50:07.718Z,4.20
2022-12-27T21:52:37.118Z,4.17
2022-12-27T21:55:07.350Z,4.16
2022-12-27T21:57:36.615Z,4.17
2022-12-27T22:00:18.700Z,4.17
2022-12-27T22:02:49.410Z,4.15
2022-12-27T22:05:19.047Z,4.13
2022-12-27T22:07:49.291Z,4.10
2022-12-27T22:10:35.203Z,4.11
2022-12-27T22:13:04.652Z,4.11
2022-12-27T22:15:33.901Z,4.10
2022-12-27T22:18:04.579Z,4.03
2022-12-27T22:20:33.899Z,3.96
2022-12-27T22:23:15.775Z,3.90
2022-12-27T22:25:47.163Z,3.88
2022-12-27T22:28:16.657Z,3.87
2022-12-27T22:30:48.505Z,3.86
2022-12-27T22:33:18.451Z,3.83
2022-12-27T22:35:47.834Z,3.77
2022-12-27T22:38:19.190Z,3.71
2022-12-27T22:40:51.035Z,3.63
2022-12-27T22:43:20.691Z,3.57
2022-12-27T22:45:53.728Z,3.53
2022-12-27T22:48:23.452Z,3.48
2022-12-27T22:50:52.721Z,3.45
2022-12-27T22:53:22.000Z,3.38
2022-12-27T22:55:51.272Z,3.31
2022-12-27T22:58:20.803Z,3.24
2022-12-27T23:00:50.147Z,3.21
2022-12-27T23:03:19.491Z,3.20
2022-12-27T23:06:02.792Z,3.14
2022-12-27T23:08:32.085Z,3.10
2022-12-27T23:11:10.382Z,3.10
2022-12-27T23:13:40.053Z,3.09
2022-12-27T23:16:12.292Z,3.06
2022-12-27T23:18:44.095Z,3.05
2022-12-27T23:21:22.981Z,3.04
2022-12-27T23:24:02.708Z,3.02
2022-12-27T23:26:32.035Z,2.98
2022-12-27T23:29:01.637Z,2.93
2022-12-27T23:31:31.615Z,2.90
2022-12-27T23:34:00.997Z,2.87
2022-12-27T23:36:32.125Z,2.83
2022-12-27T23:39:04.622Z,2.84
2022-12-27T23:41:36.445Z,2.84
2022-12-27T23:44:09.175Z,2.84
2022-12-27T23:46:38.480Z,2.82
2022-12-27T23:49:08.138Z,2.78
2022-12-27T23:51:37.435Z,2.76
2022-12-27T23:54:06.776Z,2.78
2022-12-27T23:56:36.303Z,2.79
2022-12-27T23:59:16.146Z,2.78
